Pray, MT (59065)

12:06 AM MST on February 27, 2015 (GMT -0700)
Paradise Valley | Change Station
CLOSE
Current Station
Personal Weather Station
Location: Emigrant, MT
Elevation: 4833 ft
Nearby Weather Stations

Elev 4833 ft 45.42 °N, 110.66 °W | Updated 1 minute ago

Mostly Cloudy
Mostly Cloudy
7.7 °F
Feels Like -1 °F
N
4.7
Wind Variable Wind from ESE

Today
High -- | Low -- °F
--% Chance of Precip.
Yesterday
High -- | Low -- °F
Precip. -- in
7:04 AM 6:06 PM
Waxing Gibbous, 66% visible
Pressure 30.25 in
Visibility 10.0 miles
Clouds Overcast 1900 ft
Windchill -1 °F
Dew Point 2 °F
Humidity 75%
Rainfall 0.00 in
Snow Depth Not available.
UV 0 out of 12
Pollen .40 out of 12
Air Quality Not available.
Flu Activity Not available.
METAR KLVM 270653Z AUTO 09005KT 10SM OVC019 M13/M17 A3002 RMK AO2 SLP243 T11281167 410941139

More Conditions Fewer Conditions

Pressure 30.25 in
Visibility 10.0 miles
Clouds Overcast 1900 ft
Windchill -1 °F
Dew Point 2 °F
Humidity 75%
Rainfall 0.00 in
Snow Depth Not available.
UV 0 out of 12
Pollen .40 out of 12
Air Quality Not available.
Flu Activity Not available.
METAR KLVM 270653Z AUTO 09005KT 10SM OVC019 M13/M17 A3002 RMK AO2 SLP243 T11281167 410941139

More Conditions Fewer Conditions

10-Day Weather Forecast

Almanac

Astronomy

Feb. 27, 2015 Rise Set
Actual Time
Civil Twilight
Nautical Twilight
Astronomical Twilight
Moon
Length of Visible Light
Length of Day
Tomorrow will be .
, % of the Moon is Illuminated

Today's Extremes

State Highs State Lows

Community

WunderPhotos

Upload Photos

1,800,646 photos uploaded!

WunderBlogs® & News

Nearby

Air Quality

  Air Quality AQ Index Pollutant
Not available.

Snow Depth

Station Depth Elevation

Earthquake Activity

City Distance Mag. Time & Date
Minimum magnitude displayed is 2.5.

Coastal Water Temperatures

Place Temperature

Nearby Weather Stations